Time,TemperatureF,DewpointF,PressureIn,WindDirection,WindDirectionDegrees,WindSpeedMPH,WindSpeedGustMPH,Humidity,HourlyPrecipIn,Conditions,Clouds,dailyrainin,SoftwareType,DateUTC
2013-01-12 00:05:00,73.2,64.0,30.17,NE,45,4.2,-999.0,73,-99.99,,,0.00,Acu-Link.com,2013-01-12 05:05:00,
2013-01-12 00:20:00,73.2,64.0,30.17,NNE,22,4.2,-999.0,73,-99.99,,,0.00,Acu-Link.com,2013-01-12 05:20:00,
2013-01-12 00:36:00,73.2,64.0,30.17,ENE,67,2.7,-999.0,73,-99.99,,,0.00,Acu-Link.com,2013-01-12 05:36:00,
2013-01-12 00:51:00,73.4,63.8,30.16,NNE,22,5.3,-999.0,72,-99.99,,,0.00,Acu-Link.com,2013-01-12 05:51:00,
2013-01-12 01:06:00,73.6,64.0,30.17,NNE,22,3.7,-999.0,72,-99.99,,,0.00,Acu-Link.com,2013-01-12 06:06:00,
2013-01-12 01:21:00,73.9,64.7,30.17,NE,45,5.3,-999.0,73,-99.99,,,0.00,Acu-Link.com,2013-01-12 06:21:00,
2013-01-12 01:36:00,74.1,64.9,30.17,NNE,22,6.8,-999.0,73,-99.99,,,0.00,Acu-Link.com,2013-01-12 06:36:00,
2013-01-12 01:51:00,73.9,64.7,30.16,NE,45,5.3,-999.0,73,-99.99,,,0.00,Acu-Link.com,2013-01-12 06:51:00,
2013-01-12 02:06:00,73.6,65.2,30.15,NE,45,4.2,-999.0,75,-99.99,,,0.00,Acu-Link.com,2013-01-12 07:06:00,
2013-01-12 02:21:00,73.8,65.0,30.15,NNE,22,6.8,-999.0,74,-99.99,,,0.00,Acu-Link.com,2013-01-12 07:21:00,
2013-01-12 02:36:00,73.9,65.1,30.15,East,90,5.3,-999.0,74,-99.99,,,0.00,Acu-Link.com,2013-01-12 07:36:00,
2013-01-12 02:52:00,73.8,65.0,30.14,East,90,4.2,-999.0,74,-99.99,,,0.00,Acu-Link.com,2013-01-12 07:52:00,
2013-01-12 03:07:00,73.8,64.6,30.14,East,90,3.7,-999.0,73,-99.99,,,0.00,Acu-Link.com,2013-01-12 08:07:00,
2013-01-12 03:22:00,73.6,64.4,30.15,South,180,4.7,-999.0,73,-99.99,,,0.00,Acu-Link.com,2013-01-12 08:22:00,
2013-01-12 03:37:00,73.4,64.2,30.14,NNE,22,4.2,-999.0,73,-99.99,,,0.00,Acu-Link.com,2013-01-12 08:37:00,
2013-01-12 03:52:00,72.7,63.9,30.14,NE,45,2.2,-999.0,74,-99.99,,,0.00,Acu-Link.com,2013-01-12 08:52:00,
2013-01-12 04:09:00,72.3,63.9,30.14,NE,45,2.2,-999.0,75,-99.99,,,0.00,Acu-Link.com,2013-01-12 09:09:00,
2013-01-12 04:25:00,72.3,64.3,30.13,NE,45,2.2,-999.0,76,-99.99,,,0.00,Acu-Link.com,2013-01-12 09:25:00,
2013-01-12 04:40:00,72.3,63.9,30.13,ESE,112,1.7,-999.0,75,-99.99,,,0.00,Acu-Link.com,2013-01-12 09:40:00,
2013-01-12 04:55:00,72.7,63.5,30.12,NE,45,2.7,-999.0,73,-99.99,,,0.00,Acu-Link.com,2013-01-12 09:55:00,
2013-01-12 05:10:00,72.5,62.9,30.13,East,90,3.7,-999.0,72,-99.99,,,0.00,Acu-Link.com,2013-01-12 10:10:00,
2013-01-12 05:25:00,72.0,62.9,30.14,NNE,22,1.7,-999.0,73,-99.99,,,0.00,Acu-Link.com,2013-01-12 10:25:00,
2013-01-12 05:40:00,71.6,62.9,30.15,NE,45,0.0,-999.0,74,-99.99,,,0.00,Acu-Link.com,2013-01-12 10:40:00,
2013-01-12 05:55:00,71.1,62.8,30.14,NNE,22,0.0,-999.0,75,-99.99,,,0.00,Acu-Link.com,2013-01-12 10:55:00,
2013-01-12 06:10:00,70.9,62.6,30.15,ESE,112,0.0,-999.0,75,-99.99,,,0.00,Acu-Link.com,2013-01-12 11:10:00,
2013-01-12 06:26:00,70.5,63.3,30.15,NE,45,1.7,-999.0,78,-99.99,,,0.00,Acu-Link.com,2013-01-12 11:26:00,
2013-01-12 06:41:00,70.3,63.1,30.15,East,90,0.0,-999.0,78,-99.99,,,0.00,Acu-Link.com,2013-01-12 11:41:00,
2013-01-12 06:56:00,70.7,63.5,30.16,NE,45,2.2,-999.0,78,-99.99,,,0.00,Acu-Link.com,2013-01-12 11:56:00,
2013-01-12 07:11:00,70.2,63.4,30.16,NE,45,2.2,-999.0,79,-99.99,,,0.00,Acu-Link.com,2013-01-12 12:11:00,
2013-01-12 07:26:00,70.5,63.7,30.16,NE,45,2.7,-999.0,79,-99.99,,,0.00,Acu-Link.com,2013-01-12 12:26:00,
2013-01-12 07:41:00,71.6,64.0,30.18,ENE,67,3.2,-999.0,77,-99.99,,,0.00,Acu-Link.com,2013-01-12 12:41:00,
2013-01-12 07:56:00,72.1,64.1,30.18,NE,45,3.2,-999.0,76,-99.99,,,0.00,Acu-Link.com,2013-01-12 12:56:00,
2013-01-12 08:11:00,74.1,64.1,30.17,NE,45,4.2,-999.0,71,-99.99,,,0.00,Acu-Link.com,2013-01-12 13:11:00,
2013-01-12 08:26:00,75.2,64.7,30.18,NE,45,4.7,-999.0,70,-99.99,,,0.00,Acu-Link.com,2013-01-12 13:26:00,
2013-01-12 08:42:00,75.7,64.8,30.18,North,0,7.8,-999.0,69,-99.99,,,0.00,Acu-Link.com,2013-01-12 13:42:00,
2013-01-12 08:57:00,76.5,65.1,30.18,ENE,67,5.8,-999.0,68,-99.99,,,0.00,Acu-Link.com,2013-01-12 13:57:00,
2013-01-12 09:12:00,76.6,65.2,30.19,NW,315,6.3,-999.0,68,-99.99,,,0.00,Acu-Link.com,2013-01-12 14:12:00,
2013-01-12 09:27:00,77.2,64.9,30.19,SSE,157,4.2,-999.0,66,-99.99,,,0.00,Acu-Link.com,2013-01-12 14:27:00,
2013-01-12 09:42:00,76.6,64.8,30.19,West,270,9.4,-999.0,67,-99.99,,,0.00,Acu-Link.com,2013-01-12 14:42:00,
2013-01-12 09:57:00,76.5,64.3,30.18,ESE,112,6.3,-999.0,66,-99.99,,,0.00,Acu-Link.com,2013-01-12 14:57:00,
2013-01-12 10:13:00,77.5,64.3,30.18,South,180,10.4,-999.0,64,-99.99,,,0.00,Acu-Link.com,2013-01-12 15:13:00,
2013-01-12 10:28:00,77.5,63.9,30.18,NE,45,8.3,-999.0,63,-99.99,,,0.00,Acu-Link.com,2013-01-12 15:28:00,
2013-01-12 10:43:00,77.0,63.4,30.19,East,90,8.9,-999.0,63,-99.99,,,0.00,Acu-Link.com,2013-01-12 15:43:00,
2013-01-12 10:58:00,77.2,64.1,30.18,NE,45,14.5,-999.0,64,-99.99,,,0.00,Acu-Link.com,2013-01-12 15:58:00,
2013-01-12 11:13:00,77.4,63.8,30.17,East,90,7.3,-999.0,63,-99.99,,,0.00,Acu-Link.com,2013-01-12 16:13:00,
2013-01-12 11:28:00,77.7,63.2,30.17,NE,45,8.9,-999.0,61,-99.99,,,0.00,Acu-Link.com,2013-01-12 16:28:00,
2013-01-12 11:43:00,77.5,63.4,30.15,NNW,337,9.4,-999.0,62,-99.99,,,0.00,Acu-Link.com,2013-01-12 16:43:00,
2013-01-12 11:58:00,77.7,63.6,30.15,NW,315,6.3,-999.0,62,-99.99,,,0.00,Acu-Link.com,2013-01-12 16:58:00,
2013-01-12 12:13:00,77.2,64.1,30.14,ESE,112,5.8,-999.0,64,-99.99,,,0.00,Acu-Link.com,2013-01-12 17:13:00,
2013-01-12 12:29:00,77.2,63.6,30.15,ENE,67,8.9,-999.0,63,-99.99,,,0.00,Acu-Link.com,2013-01-12 17:29:00,
2013-01-12 12:44:00,78.1,64.0,30.14,SW,225,6.8,-999.0,62,-99.99,,,0.00,Acu-Link.com,2013-01-12 17:44:00,
2013-01-12 12:59:00,79.0,63.9,30.13,SSE,157,6.3,-999.0,60,-99.99,,,0.00,Acu-Link.com,2013-01-12 17:59:00,
2013-01-12 13:14:00,78.8,63.7,30.12,NNE,22,6.8,-999.0,60,-99.99,,,0.00,Acu-Link.com,2013-01-12 18:14:00,
2013-01-12 13:29:00,77.0,63.0,30.12,ESE,112,5.3,-999.0,62,-99.99,,,0.00,Acu-Link.com,2013-01-12 18:29:00,
2013-01-12 13:44:00,78.4,64.3,30.12,WSW,247,8.3,-999.0,62,-99.99,,,0.00,Acu-Link.com,2013-01-12 18:44:00,
2013-01-12 13:59:00,78.4,63.8,30.11,West,270,5.3,-999.0,61,-99.99,,,0.00,Acu-Link.com,2013-01-12 18:59:00,
2013-01-12 14:14:00,77.7,63.2,30.11,ESE,112,8.9,-999.0,61,-99.99,,,0.00,Acu-Link.com,2013-01-12 19:14:00,
2013-01-12 14:29:00,77.5,63.0,30.11,NNE,22,6.3,-999.0,61,-99.99,,,0.00,Acu-Link.com,2013-01-12 19:29:00,
2013-01-12 14:45:00,78.1,63.5,30.10,ESE,112,9.9,-999.0,61,-99.99,,,0.00,Acu-Link.com,2013-01-12 19:45:00,
2013-01-12 15:00:00,77.7,62.2,30.10,ENE,67,6.3,-999.0,59,-99.99,,,0.00,Acu-Link.com,2013-01-12 20:00:00,
2013-01-12 15:15:00,77.7,62.7,30.10,WNW,292,9.4,-999.0,60,-99.99,,,0.00,Acu-Link.com,2013-01-12 20:15:00,
2013-01-12 15:30:00,77.2,62.7,30.11,NE,45,6.8,-999.0,61,-99.99,,,0.00,Acu-Link.com,2013-01-12 20:30:00,
2013-01-12 15:45:00,77.5,62.5,30.11,ENE,67,7.3,-999.0,60,-99.99,,,0.00,Acu-Link.com,2013-01-12 20:45:00,
2013-01-12 16:00:00,77.2,62.2,30.11,NE,45,7.3,-999.0,60,-99.99,,,0.00,Acu-Link.com,2013-01-12 21:00:00,
2013-01-12 16:15:00,77.0,63.0,30.11,ESE,112,4.7,-999.0,62,-99.99,,,0.00,Acu-Link.com,2013-01-12 21:15:00,
2013-01-12 16:30:00,76.8,62.8,30.11,ESE,112,8.3,-999.0,62,-99.99,,,0.00,Acu-Link.com,2013-01-12 21:30:00,
2013-01-12 16:45:00,76.6,62.6,30.12,South,180,7.3,-999.0,62,-99.99,,,0.00,Acu-Link.com,2013-01-12 21:45:00,
2013-01-12 17:01:00,76.1,62.1,30.12,North,0,5.3,-999.0,62,-99.99,,,0.00,Acu-Link.com,2013-01-12 22:01:00,
2013-01-12 17:16:00,75.9,62.8,30.12,NNW,337,4.7,-999.0,64,-99.99,,,0.00,Acu-Link.com,2013-01-12 22:16:00,
2013-01-12 17:31:00,75.6,63.0,30.12,West,270,4.2,-999.0,65,-99.99,,,0.00,Acu-Link.com,2013-01-12 22:31:00,
2013-01-12 17:46:00,74.8,62.2,30.13,East,90,3.7,-999.0,65,-99.99,,,0.00,Acu-Link.com,2013-01-12 22:46:00,
2013-01-12 18:01:00,74.3,62.6,30.13,ESE,112,2.2,-999.0,67,-99.99,,,0.00,Acu-Link.com,2013-01-12 23:01:00,
2013-01-12 18:16:00,74.1,62.4,30.13,ESE,112,0.0,-999.0,67,-99.99,,,0.00,Acu-Link.com,2013-01-12 23:16:00,
2013-01-12 18:31:00,74.1,62.8,30.13,NNE,22,2.7,-999.0,68,-99.99,,,0.00,Acu-Link.com,2013-01-12 23:31:00,
2013-01-12 18:46:00,73.8,63.0,30.13,NE,45,2.2,-999.0,69,-99.99,,,0.00,Acu-Link.com,2013-01-12 23:46:00,
2013-01-12 19:01:00,73.8,63.4,30.14,NE,45,0.0,-999.0,70,-99.99,,,0.00,Acu-Link.com,2013-01-13 00:01:00,
2013-01-12 19:17:00,73.8,63.8,30.14,ENE,67,1.7,-999.0,71,-99.99,,,0.00,Acu-Link.com,2013-01-13 00:17:00,
2013-01-12 19:47:00,73.4,63.8,30.14,NE,45,1.7,-999.0,72,-99.99,,,0.00,Acu-Link.com,2013-01-13 00:47:00,
2013-01-12 20:02:00,73.0,63.8,30.15,NNE,22,0.0,-999.0,73,-99.99,,,0.00,Acu-Link.com,2013-01-13 01:02:00,
2013-01-12 20:17:00,72.1,64.1,30.14,NNE,22,0.0,-999.0,76,-99.99,,,0.00,Acu-Link.com,2013-01-13 01:17:00,
2013-01-12 20:32:00,72.3,63.5,30.14,NE,45,1.1,-999.0,74,-99.99,,,0.00,Acu-Link.com,2013-01-13 01:32:00,
2013-01-12 20:47:00,72.3,63.5,30.14,NE,45,0.0,-999.0,74,-99.99,,,0.00,Acu-Link.com,2013-01-13 01:47:00,
2013-01-12 21:02:00,71.6,63.2,30.15,NE,45,0.0,-999.0,75,-99.99,,,0.00,Acu-Link.com,2013-01-13 02:02:00,
2013-01-12 21:17:00,70.5,63.3,30.14,ENE,67,0.0,-999.0,78,-99.99,,,0.00,Acu-Link.com,2013-01-13 02:17:00,
2013-01-12 21:33:00,71.2,63.2,30.13,NNE,22,0.0,-999.0,76,-99.99,,,0.00,Acu-Link.com,2013-01-13 02:33:00,
2013-01-12 21:48:00,70.9,62.9,30.13,ENE,67,1.7,-999.0,76,-99.99,,,0.00,Acu-Link.com,2013-01-13 02:48:00,
2013-01-12 22:03:00,70.9,62.9,30.14,NNE,22,2.2,-999.0,76,-99.99,,,0.00,Acu-Link.com,2013-01-13 03:03:00,
2013-01-12 22:18:00,70.9,62.9,30.13,NE,45,2.7,-999.0,76,-99.99,,,0.00,Acu-Link.com,2013-01-13 03:18:00,
2013-01-12 22:33:00,70.5,62.6,30.12,NE,45,1.1,-999.0,76,-99.99,,,0.00,Acu-Link.com,2013-01-13 03:33:00,
2013-01-12 22:48:00,70.0,62.4,30.12,NNE,22,0.0,-999.0,77,-99.99,,,0.00,Acu-Link.com,2013-01-13 03:48:00,
2013-01-12 23:03:00,69.4,62.2,30.12,ENE,67,0.0,-999.0,78,-99.99,,,0.00,Acu-Link.com,2013-01-13 04:03:00,
2013-01-12 23:18:00,69.6,62.4,30.12,NE,45,0.0,-999.0,78,-99.99,,,0.00,Acu-Link.com,2013-01-13 04:18:00,
2013-01-12 23:33:00,69.4,62.2,30.12,NNE,22,0.0,-999.0,78,-99.99,,,0.00,Acu-Link.com,2013-01-13 04:33:00,
2013-01-12 23:49:00,69.4,62.6,30.10,NE,45,0.0,-999.0,79,-99.99,,,0.00,Acu-Link.com,2013-01-13 04:49:00,